createdAt,value
2023-05-13T00:04:03.593Z,18.17
2023-05-13T00:14:06.342Z,17.97
2023-05-13T00:24:07.821Z,17.91
2023-05-13T00:34:09.237Z,17.86
2023-05-13T00:44:11.453Z,17.75
2023-05-13T00:54:14.087Z,17.69
2023-05-13T01:04:37.325Z,17.75
2023-05-13T01:14:45.541Z,17.61
2023-05-13T01:24:46.996Z,17.67
2023-05-13T01:34:48.385Z,17.45
2023-05-13T01:44:51.288Z,17.36
2023-05-13T01:54:52.680Z,17.40
2023-05-13T02:04:54.070Z,17.33
2023-05-13T02:14:55.537Z,17.30
2023-05-13T02:24:57.251Z,17.31
2023-05-13T02:34:58.638Z,17.23
2023-05-13T02:45:00.048Z,17.22
2023-05-13T02:55:02.148Z,17.32
2023-05-13T03:05:03.882Z,17.31
2023-05-13T03:15:05.541Z,17.28
2023-05-13T03:25:07.270Z,17.35
2023-05-13T03:35:08.744Z,17.27
2023-05-13T03:45:10.461Z,17.23
2023-05-13T03:55:11.851Z,17.05
2023-05-13T04:05:14.108Z,17.12
2023-05-13T04:15:15.637Z,17.02
2023-05-13T04:25:17.011Z,16.98
2023-05-13T04:35:18.389Z,17.17
2023-05-13T04:45:20.192Z,17.37
2023-05-13T04:55:22.294Z,17.47
2023-05-13T05:05:24.182Z,17.47
2023-05-13T05:15:25.615Z,17.52
2023-05-13T05:25:27.010Z,17.67
2023-05-13T05:35:28.399Z,17.99
2023-05-13T05:45:29.806Z,18.83
2023-05-13T05:55:34.296Z,19.48
2023-05-13T06:05:36.135Z,20.04
2023-05-13T06:15:40.707Z,20.00
2023-05-13T06:25:42.168Z,20.14
2023-05-13T06:35:48.084Z,20.55
2023-05-13T06:45:49.467Z,21.14
2023-05-13T06:55:51.106Z,21.51
2023-05-13T07:05:53.628Z,21.31
2023-05-13T07:15:55.018Z,21.44
2023-05-13T07:25:56.411Z,21.36
2023-05-13T07:35:57.856Z,21.40
2023-05-13T07:45:59.250Z,21.94
2023-05-13T07:56:00.645Z,22.53
2023-05-13T08:06:02.018Z,22.99
2023-05-13T08:16:03.540Z,24.04
2023-05-13T08:26:04.970Z,23.95
2023-05-13T08:36:06.807Z,25.19
2023-05-13T08:46:09.649Z,25.71
2023-05-13T08:56:11.752Z,28.10
2023-05-13T09:06:13.144Z,31.88
2023-05-13T09:16:15.107Z,33.83
2023-05-13T09:26:29.339Z,34.89
2023-05-13T09:36:30.710Z,35.09
2023-05-13T09:46:33.181Z,34.18
2023-05-13T09:56:35.260Z,29.61
2023-05-13T10:06:36.702Z,27.53
2023-05-13T10:16:38.552Z,25.53
2023-05-13T10:26:41.505Z,24.29
2023-05-13T10:37:10.641Z,23.95
2023-05-13T10:47:12.243Z,23.61
2023-05-13T10:57:13.634Z,23.33
2023-05-13T11:07:16.451Z,23.15
2023-05-13T11:17:19.230Z,23.05
2023-05-13T11:27:20.767Z,23.01
2023-05-13T11:37:22.139Z,22.68
2023-05-13T11:47:29.408Z,22.57
2023-05-13T11:57:33.997Z,22.45
2023-05-13T12:07:35.630Z,22.44
2023-05-13T12:17:37.153Z,22.33
2023-05-13T12:27:38.548Z,22.24
2023-05-13T12:37:39.984Z,22.14
2023-05-13T12:47:51.065Z,22.10
2023-05-13T12:58:02.961Z,21.92
2023-05-13T13:08:07.240Z,21.86
2023-05-13T13:18:09.157Z,21.82
2023-05-13T13:28:11.087Z,21.81
2023-05-13T13:38:12.842Z,21.81
2023-05-13T13:48:14.303Z,21.86
2023-05-13T13:58:15.777Z,21.91
2023-05-13T14:08:17.235Z,21.91
2023-05-13T14:18:18.686Z,21.74
2023-05-13T14:28:20.118Z,21.60
2023-05-13T14:38:21.506Z,21.58
2023-05-13T14:48:22.911Z,21.63
2023-05-13T14:58:24.347Z,21.82
2023-05-13T15:08:25.759Z,21.75
2023-05-13T15:18:27.166Z,21.73
2023-05-13T15:28:29.044Z,21.76
2023-05-13T15:38:30.493Z,21.76
2023-05-13T15:48:31.905Z,21.61
2023-05-13T15:58:33.418Z,21.46
2023-05-13T16:08:34.858Z,21.35
2023-05-13T16:18:36.250Z,21.29
2023-05-13T16:28:37.821Z,21.17
2023-05-13T16:38:41.167Z,21.13
2023-05-13T16:48:42.587Z,21.10
2023-05-13T16:58:43.997Z,21.04
2023-05-13T17:08:45.429Z,20.99
2023-05-13T17:18:46.863Z,20.94
2023-05-13T17:28:48.879Z,20.89
2023-05-13T17:38:50.429Z,20.85
2023-05-13T17:48:52.064Z,20.83
2023-05-13T17:58:53.566Z,20.81
2023-05-13T18:08:55.007Z,20.73
2023-05-13T18:18:56.384Z,20.72
2023-05-13T18:28:57.864Z,20.72
2023-05-13T18:38:59.296Z,20.69
2023-05-13T18:49:00.708Z,20.67
2023-05-13T18:59:02.146Z,20.60
2023-05-13T19:09:03.656Z,20.54
2023-05-13T19:19:05.262Z,20.47
2023-05-13T19:29:06.700Z,20.42
2023-05-13T19:39:08.145Z,20.36
2023-05-13T19:49:09.531Z,20.27
2023-05-13T19:59:10.941Z,20.16
2023-05-13T20:09:12.482Z,20.06
2023-05-13T20:19:13.981Z,19.95
2023-05-13T20:29:16.073Z,19.81
2023-05-13T20:39:17.459Z,19.69
2023-05-13T20:49:18.873Z,19.61
2023-05-13T20:59:20.345Z,19.51
2023-05-13T21:09:21.768Z,19.39
2023-05-13T21:19:23.655Z,19.32
2023-05-13T21:29:25.154Z,19.12
2023-05-13T21:39:26.649Z,19.00
2023-05-13T21:49:28.035Z,18.84
2023-05-13T21:59:29.435Z,18.80
2023-05-13T22:09:31.124Z,18.71
2023-05-13T22:19:34.393Z,18.63
2023-05-13T22:29:35.864Z,18.47
2023-05-13T22:39:37.547Z,18.33
2023-05-13T22:49:38.919Z,18.11
2023-05-13T22:59:40.302Z,18.03
2023-05-13T23:09:41.941Z,17.80
2023-05-13T23:19:43.470Z,17.78
2023-05-13T23:29:44.875Z,17.58
2023-05-13T23:39:46.269Z,17.62
2023-05-13T23:49:47.823Z,17.61
2023-05-13T23:59:49.371Z,17.66
